createdAt,value
2018-06-23T00:00:41.813Z,94.88
2018-06-23T00:01:41.751Z,94.91
2018-06-23T00:02:41.777Z,94.86
2018-06-23T00:03:41.763Z,94.83
2018-06-23T00:04:41.710Z,94.50
2018-06-23T00:05:41.699Z,93.89
2018-06-23T00:06:41.816Z,93.26
2018-06-23T00:07:41.751Z,92.70
2018-06-23T00:08:41.751Z,92.14
2018-06-23T00:09:41.820Z,91.79
2018-06-23T00:10:41.820Z,91.65
2018-06-23T00:11:41.781Z,91.38
2018-06-23T00:12:41.789Z,91.30
2018-06-23T00:13:41.822Z,91.20
2018-06-23T00:14:41.787Z,91.01
2018-06-23T00:15:41.739Z,91.07
2018-06-23T00:16:41.847Z,91.14
2018-06-23T00:17:41.746Z,91.22
2018-06-23T00:18:41.803Z,91.38
2018-06-23T00:19:41.781Z,91.44
2018-06-23T00:20:41.852Z,91.30
2018-06-23T00:21:41.854Z,91.17
2018-06-23T00:22:41.850Z,90.90
2018-06-23T00:23:41.752Z,90.80
2018-06-23T00:24:41.798Z,90.98
2018-06-23T00:25:41.775Z,91.03
2018-06-23T00:26:41.765Z,91.17
2018-06-23T00:27:41.771Z,91.33
2018-06-23T00:28:41.740Z,91.33
2018-06-23T00:29:41.809Z,91.38
2018-06-23T00:30:41.815Z,91.52
2018-06-23T00:31:41.735Z,91.63
2018-06-23T00:32:41.815Z,91.90
2018-06-23T00:33:41.780Z,92.11
2018-06-23T00:34:41.753Z,92.43
2018-06-23T00:35:41.740Z,92.73
2018-06-23T00:36:41.855Z,92.91
2018-06-23T00:37:41.830Z,93.02
2018-06-23T00:38:41.827Z,93.10
2018-06-23T00:39:41.828Z,93.08
2018-06-23T00:40:41.755Z,92.91
2018-06-23T00:41:41.745Z,92.95
2018-06-23T00:42:41.714Z,92.95
2018-06-23T00:43:41.739Z,92.86
2018-06-23T00:44:41.760Z,92.78
2018-06-23T00:45:41.805Z,92.27
2018-06-23T00:46:41.784Z,92.08
2018-06-23T00:47:41.805Z,92.08
2018-06-23T00:48:41.750Z,91.79
2018-06-23T00:49:41.796Z,91.86
2018-06-23T00:50:41.826Z,91.92
2018-06-23T00:51:41.821Z,91.84
2018-06-23T00:52:41.804Z,91.60
2018-06-23T00:53:41.747Z,91.47
2018-06-23T00:54:41.786Z,91.20
2018-06-23T00:55:41.787Z,90.85
2018-06-23T00:56:41.898Z,90.71
2018-06-23T00:57:41.865Z,90.61
2018-06-23T00:58:41.868Z,90.55
2018-06-23T00:59:41.887Z,90.50
2018-06-23T01:00:41.823Z,90.42
2018-06-23T01:01:41.808Z,90.45
2018-06-23T01:02:41.773Z,90.26
2018-06-23T01:03:41.794Z,90.07
2018-06-23T01:04:41.852Z,89.99
2018-06-23T01:05:41.898Z,89.97
2018-06-23T01:06:41.853Z,89.80
2018-06-23T01:07:41.822Z,89.80
2018-06-23T01:08:41.887Z,89.86
2018-06-23T01:09:41.894Z,90.09
2018-06-23T01:10:41.900Z,90.15
2018-06-23T01:11:41.829Z,90.23
2018-06-23T01:12:41.859Z,90.20
2018-06-23T01:13:41.865Z,90.18
2018-06-23T01:14:41.796Z,90.18
2018-06-23T01:15:41.799Z,90.18
2018-06-23T01:16:41.866Z,90.28
2018-06-23T01:17:41.794Z,90.23
2018-06-23T01:18:41.795Z,90.23
2018-06-23T01:19:41.796Z,90.07
2018-06-23T01:20:41.871Z,90.07
2018-06-23T01:21:41.833Z,90.13
2018-06-23T01:22:41.871Z,90.07
2018-06-23T01:23:41.831Z,90.05
2018-06-23T01:24:41.928Z,90.20
2018-06-23T01:25:41.898Z,90.31
2018-06-23T01:26:41.789Z,90.55
2018-06-23T01:27:41.872Z,90.69
2018-06-23T01:28:41.847Z,90.82
2018-06-23T01:29:41.871Z,90.80
2018-06-23T01:30:41.906Z,91.01
2018-06-23T01:31:41.811Z,91.20
2018-06-23T01:32:41.909Z,91.33
2018-06-23T01:33:41.838Z,91.25
2018-06-23T01:34:41.894Z,91.33
2018-06-23T01:35:41.884Z,91.36
2018-06-23T01:36:41.858Z,91.38
2018-06-23T01:37:41.931Z,91.41
2018-06-23T01:38:41.895Z,91.30
2018-06-23T01:39:41.845Z,91.25
2018-06-23T01:40:41.802Z,91.20
2018-06-23T01:41:41.783Z,91.14
2018-06-23T01:42:41.782Z,91.28
2018-06-23T01:43:41.815Z,91.38
2018-06-23T01:44:41.775Z,91.52
2018-06-23T01:45:41.812Z,91.60
2018-06-23T01:46:41.886Z,91.79
2018-06-23T01:47:41.817Z,91.95
2018-06-23T01:48:41.885Z,92.05
2018-06-23T01:49:41.901Z,92.11
2018-06-23T01:50:41.819Z,92.16
2018-06-23T01:51:41.888Z,92.22
2018-06-23T01:52:41.892Z,92.30
2018-06-23T01:53:41.896Z,92.38
2018-06-23T01:54:41.854Z,92.22
2018-06-23T01:55:41.910Z,92.03
2018-06-23T01:56:41.894Z,91.86
2018-06-23T01:57:41.834Z,91.82
2018-06-23T01:58:41.910Z,91.82
2018-06-23T01:59:41.814Z,91.86
2018-06-23T02:00:41.909Z,91.79
2018-06-23T02:01:41.914Z,91.84
2018-06-23T02:02:41.945Z,91.97
2018-06-23T02:03:41.826Z,92.03
2018-06-23T02:04:41.895Z,92.08
2018-06-23T02:05:41.829Z,92.19
2018-06-23T02:06:41.901Z,92.27
2018-06-23T02:07:41.826Z,92.19
2018-06-23T02:08:41.830Z,92.32
2018-06-23T02:09:41.831Z,92.43
2018-06-23T02:10:41.900Z,92.57
2018-06-23T02:11:41.782Z,92.65
2018-06-23T02:12:41.897Z,92.73
2018-06-23T02:13:41.773Z,92.78
2018-06-23T02:14:41.837Z,92.91
2018-06-23T02:15:41.845Z,93.10
2018-06-23T02:16:50.160Z,93.32
2018-06-23T02:17:41.818Z,93.35
2018-06-23T02:18:41.837Z,93.51
2018-06-23T02:19:41.840Z,93.67
2018-06-23T02:20:41.845Z,93.78
2018-06-23T02:21:41.902Z,93.83
2018-06-23T02:22:41.901Z,93.99
2018-06-23T02:23:41.875Z,94.15
2018-06-23T02:24:41.843Z,94.40
2018-06-23T02:25:41.922Z,94.50
2018-06-23T02:26:41.931Z,94.69
2018-06-23T02:27:41.811Z,94.77
2018-06-23T02:28:41.895Z,94.83
2018-06-23T02:29:41.929Z,94.91
2018-06-23T02:30:41.913Z,94.93
2018-06-23T02:31:41.911Z,94.93
2018-06-23T02:32:41.877Z,94.96
2018-06-23T02:33:41.863Z,94.83
2018-06-23T02:34:41.767Z,94.69
2018-06-23T02:35:41.815Z,94.69
2018-06-23T02:36:41.772Z,94.56
2018-06-23T02:37:41.864Z,94.45
2018-06-23T02:38:41.869Z,94.34
2018-06-23T02:39:41.774Z,94.15
2018-06-23T02:40:41.818Z,94.10
2018-06-23T02:41:41.821Z,94.07
2018-06-23T02:42:41.865Z,94.04
2018-06-23T02:43:41.863Z,93.85
2018-06-23T02:44:41.869Z,93.75
2018-06-23T02:45:41.791Z,93.54
2018-06-23T02:46:41.869Z,93.35
2018-06-23T02:47:41.777Z,93.29
2018-06-23T02:48:41.872Z,93.10
2018-06-23T02:49:41.780Z,92.84
2018-06-23T02:50:41.782Z,92.70
2018-06-23T02:51:41.842Z,92.76
2018-06-23T02:52:41.831Z,92.43
2018-06-23T02:53:41.908Z,92.11
2018-06-23T02:54:41.947Z,92.08
2018-06-23T02:55:41.987Z,91.86
2018-06-23T02:56:41.944Z,91.79
2018-06-23T02:57:41.928Z,91.44
2018-06-23T02:58:41.949Z,91.41
2018-06-23T02:59:41.968Z,91.25
2018-06-23T03:00:41.952Z,91.03
2018-06-23T03:01:41.934Z,90.85
2018-06-23T03:02:41.914Z,90.61
2018-06-23T03:03:41.874Z,90.42
2018-06-23T03:04:41.851Z,90.23
2018-06-23T03:05:41.932Z,90.13
2018-06-23T03:06:41.855Z,89.99
2018-06-23T03:07:41.931Z,89.56
2018-06-23T03:08:41.925Z,89.54
2018-06-23T03:09:41.845Z,89.14
2018-06-23T03:10:41.878Z,89.03
2018-06-23T03:11:41.860Z,88.73
2018-06-23T03:12:41.937Z,88.62
2018-06-23T03:13:41.859Z,88.84
2018-06-23T03:14:41.933Z,88.92
2018-06-23T03:15:41.904Z,89.03
2018-06-23T03:16:41.859Z,89.08
2018-06-23T03:17:41.940Z,89.06
2018-06-23T03:18:41.938Z,88.92
2018-06-23T03:19:41.937Z,88.73
2018-06-23T03:20:41.871Z,88.57
2018-06-23T03:21:41.939Z,88.65
2018-06-23T03:22:41.867Z,88.41
2018-06-23T03:23:41.953Z,88.36
2018-06-23T03:24:41.948Z,88.31
2018-06-23T03:25:41.933Z,88.25
2018-06-23T03:26:41.886Z,88.20
2018-06-23T03:27:41.951Z,87.93
2018-06-23T03:28:41.908Z,87.90
2018-06-23T03:29:41.958Z,87.90
2018-06-23T03:30:41.896Z,88.07
2018-06-23T03:31:41.951Z,87.85
2018-06-23T03:32:41.888Z,87.64
2018-06-23T03:33:41.990Z,87.64
2018-06-23T03:34:41.915Z,87.56
2018-06-23T03:35:41.981Z,87.77
2018-06-23T03:36:41.935Z,87.56
2018-06-23T03:37:41.983Z,87.67
2018-06-23T03:38:41.937Z,87.59
2018-06-23T03:39:41.956Z,87.59
2018-06-23T03:40:41.882Z,87.53
2018-06-23T03:41:41.855Z,87.67
2018-06-23T03:42:41.993Z,87.90
2018-06-23T03:43:41.897Z,88.04
2018-06-23T03:44:41.886Z,87.90
2018-06-23T03:45:41.955Z,88.09
2018-06-23T03:46:41.897Z,88.23
2018-06-23T03:47:41.866Z,88.12
2018-06-23T03:48:41.953Z,88.28
2018-06-23T03:49:41.896Z,88.39
2018-06-23T03:50:41.959Z,88.41
2018-06-23T03:51:41.886Z,88.54
2018-06-23T03:52:41.914Z,88.71
2018-06-23T03:53:41.839Z,88.76
2018-06-23T03:54:41.901Z,88.84
2018-06-23T03:55:41.899Z,88.76
2018-06-23T03:56:41.967Z,88.73
2018-06-23T03:57:41.980Z,88.71
2018-06-23T03:58:41.967Z,88.57
2018-06-23T03:59:41.903Z,88.57
2018-06-23T04:00:41.910Z,88.65
2018-06-23T04:01:41.970Z,88.71
2018-06-23T04:02:41.941Z,88.62
2018-06-23T04:03:41.910Z,88.76
2018-06-23T04:04:41.976Z,88.87
2018-06-23T04:05:41.998Z,89.00
2018-06-23T04:06:41.905Z,88.87
2018-06-23T04:07:41.907Z,88.89
2018-06-23T04:08:41.908Z,89.00
2018-06-23T04:09:41.910Z,88.84
2018-06-23T04:10:41.982Z,88.79
2018-06-23T04:11:41.911Z,88.65
2018-06-23T04:12:41.907Z,88.79
2018-06-23T04:13:41.981Z,88.50
2018-06-23T04:14:42.005Z,88.54
2018-06-23T04:15:41.948Z,88.65
2018-06-23T04:16:41.991Z,88.62
2018-06-23T04:17:41.981Z,88.41
2018-06-23T04:18:42.018Z,88.65
2018-06-23T04:19:41.960Z,88.76
2018-06-23T04:20:41.940Z,88.60
2018-06-23T04:21:42.008Z,88.50
2018-06-23T04:22:41.997Z,88.36
2018-06-23T04:23:41.882Z,88.12
2018-06-23T04:24:41.909Z,87.80
2018-06-23T04:25:41.951Z,87.69
2018-06-23T04:26:41.987Z,87.93
2018-06-23T04:27:42.001Z,87.90
2018-06-23T04:28:42.015Z,87.88
2018-06-23T04:29:41.988Z,87.61
2018-06-23T04:30:41.896Z,87.59
2018-06-23T04:31:41.948Z,87.61
2018-06-23T04:32:42.029Z,87.56
2018-06-23T04:33:41.990Z,87.72
2018-06-23T04:34:41.990Z,87.77
2018-06-23T04:35:42.017Z,87.29
2018-06-23T04:36:42.017Z,87.08
2018-06-23T04:37:41.914Z,87.29
2018-06-23T04:38:41.992Z,87.34
2018-06-23T04:39:41.994Z,87.32
2018-06-23T04:40:41.999Z,87.08
2018-06-23T04:41:42.034Z,87.26
2018-06-23T04:42:41.994Z,87.40
2018-06-23T04:43:41.995Z,87.24
2018-06-23T04:44:41.932Z,87.45
2018-06-23T04:45:41.935Z,87.64
2018-06-23T04:46:42.000Z,87.98
2018-06-23T04:47:41.999Z,87.82
2018-06-23T04:48:42.000Z,88.36
2018-06-23T04:49:41.936Z,88.44
2018-06-23T04:50:42.003Z,88.36
2018-06-23T04:51:42.002Z,88.50
2018-06-23T04:52:41.938Z,88.87
2018-06-23T04:53:42.005Z,89.08
2018-06-23T04:54:41.899Z,88.87
2018-06-23T04:55:41.940Z,89.08
2018-06-23T04:56:41.987Z,88.97
2018-06-23T04:57:41.900Z,89.19
2018-06-23T04:58:41.992Z,89.78
2018-06-23T04:59:41.872Z,90.55
2018-06-23T05:00:41.877Z,91.01
2018-06-23T05:01:41.947Z,91.57
2018-06-23T05:02:41.903Z,91.52
2018-06-23T05:03:41.889Z,91.82
2018-06-23T05:04:41.948Z,91.95
2018-06-23T05:05:41.979Z,92.43
2018-06-23T05:06:41.933Z,92.54
2018-06-23T05:07:41.986Z,92.59
2018-06-23T05:08:42.041Z,92.73
2018-06-23T05:09:41.923Z,92.86
2018-06-23T05:10:42.092Z,92.97
2018-06-23T05:11:42.017Z,92.89
2018-06-23T05:12:41.959Z,92.65
2018-06-23T05:13:42.000Z,92.32
2018-06-23T05:14:42.020Z,92.16
2018-06-23T05:15:42.017Z,91.09
2018-06-23T05:16:42.000Z,90.28
2018-06-23T05:17:41.953Z,89.88
2018-06-23T05:18:41.955Z,89.67
2018-06-23T05:19:41.954Z,89.54
2018-06-23T05:20:42.019Z,89.43
2018-06-23T05:21:42.020Z,89.56
2018-06-23T05:22:41.959Z,89.54
2018-06-23T05:23:42.023Z,89.51
2018-06-23T05:24:41.971Z,89.16
2018-06-23T05:25:41.881Z,88.97
2018-06-23T05:26:41.950Z,88.73
2018-06-23T05:27:41.928Z,88.97
2018-06-23T05:28:41.935Z,89.00
2018-06-23T05:29:41.974Z,88.81
2018-06-23T05:30:41.913Z,88.76
2018-06-23T05:31:41.989Z,88.87
2018-06-23T05:32:41.931Z,89.03
2018-06-23T05:33:41.978Z,89.27
2018-06-23T05:34:42.016Z,89.56
2018-06-23T05:35:41.937Z,89.51
2018-06-23T05:36:42.021Z,89.59
2018-06-23T05:37:42.057Z,89.86
2018-06-23T05:38:42.026Z,90.20
2018-06-23T05:39:42.022Z,90.26
2018-06-23T05:40:42.024Z,89.99
2018-06-23T05:41:41.920Z,90.13
2018-06-23T05:42:42.004Z,90.28
2018-06-23T05:43:41.990Z,90.34
2018-06-23T05:44:41.965Z,90.36
2018-06-23T05:45:42.017Z,90.13
2018-06-23T05:46:42.092Z,90.36
2018-06-23T05:47:41.963Z,90.66
2018-06-23T05:48:42.086Z,90.96
2018-06-23T05:49:41.998Z,91.28
2018-06-23T05:50:42.071Z,91.28
2018-06-23T05:51:42.079Z,92.03
2018-06-23T05:52:42.072Z,92.86
2018-06-23T05:53:42.073Z,93.05
2018-06-23T05:54:41.975Z,93.16
2018-06-23T05:55:41.952Z,93.51
2018-06-23T05:56:41.978Z,92.99
2018-06-23T05:57:41.912Z,92.84
2018-06-23T05:58:41.915Z,92.70
2018-06-23T05:59:41.979Z,92.81
2018-06-23T06:00:42.123Z,92.59
2018-06-23T06:01:41.985Z,92.59
2018-06-23T06:02:41.991Z,92.49
2018-06-23T06:03:42.052Z,92.11
2018-06-23T06:04:42.061Z,92.01
2018-06-23T06:05:41.958Z,91.55
2018-06-23T06:06:42.027Z,91.28
2018-06-23T06:07:42.035Z,90.61
2018-06-23T06:08:42.070Z,90.61
2018-06-23T06:09:42.020Z,90.39
2018-06-23T06:10:41.998Z,90.26
2018-06-23T06:11:42.097Z,89.94
2018-06-23T06:12:42.139Z,89.97
2018-06-23T06:13:41.961Z,90.09
2018-06-23T06:14:42.044Z,90.36
2018-06-23T06:15:41.984Z,90.42
2018-06-23T06:16:42.006Z,90.50
2018-06-23T06:17:41.987Z,90.80
2018-06-23T06:18:41.944Z,91.63
2018-06-23T06:19:42.012Z,92.30
2018-06-23T06:20:41.950Z,92.78
2018-06-23T06:21:42.007Z,93.26
2018-06-23T06:22:42.047Z,94.21
2018-06-23T06:23:42.009Z,94.75
2018-06-23T06:24:42.015Z,95.47
2018-06-23T06:25:41.994Z,96.02
2018-06-23T06:26:41.973Z,96.47
2018-06-23T06:27:41.977Z,96.39
2018-06-23T06:28:42.058Z,96.88
2018-06-23T06:29:42.054Z,97.18
2018-06-23T06:30:41.979Z,97.18
2018-06-23T06:31:41.937Z,97.34
2018-06-23T06:32:41.977Z,97.47
2018-06-23T06:33:42.069Z,97.69
2018-06-23T06:34:41.964Z,97.64
2018-06-23T06:35:42.058Z,97.55
2018-06-23T06:36:42.099Z,97.53
2018-06-23T06:37:42.034Z,97.21
2018-06-23T06:38:42.043Z,97.12
2018-06-23T06:39:42.038Z,96.66
2018-06-23T06:40:42.109Z,96.26
2018-06-23T06:41:42.108Z,95.98
2018-06-23T06:42:42.029Z,95.96
2018-06-23T06:43:42.113Z,95.98
2018-06-23T06:44:42.187Z,95.98
2018-06-23T06:45:42.020Z,95.53
2018-06-23T06:46:41.988Z,95.18
2018-06-23T06:47:42.015Z,94.61
2018-06-23T06:48:41.950Z,94.29
2018-06-23T06:49:42.072Z,94.34
2018-06-23T06:50:42.082Z,94.12
2018-06-23T06:51:42.011Z,93.96
2018-06-23T06:52:42.019Z,93.85
2018-06-23T06:53:42.068Z,94.07
2018-06-23T06:54:42.120Z,93.99
2018-06-23T06:55:42.006Z,93.45
2018-06-23T06:56:42.087Z,93.37
2018-06-23T06:57:41.990Z,93.37
2018-06-23T06:58:42.041Z,93.67
2018-06-23T06:59:42.048Z,93.59
2018-06-23T07:00:42.058Z,93.62
2018-06-23T07:01:42.062Z,93.85
2018-06-23T07:02:42.090Z,94.21
2018-06-23T07:03:42.127Z,94.40
2018-06-23T07:04:42.017Z,94.99
2018-06-23T07:05:42.022Z,94.83
2018-06-23T07:06:42.000Z,95.10
2018-06-23T07:07:42.011Z,95.66
2018-06-23T07:08:42.078Z,95.83
2018-06-23T07:09:42.082Z,96.26
2018-06-23T07:10:42.020Z,96.39
2018-06-23T07:11:41.986Z,96.93
2018-06-23T07:12:42.028Z,97.21
2018-06-23T07:13:42.045Z,97.34
2018-06-23T07:14:42.055Z,97.31
2018-06-23T07:15:42.071Z,97.26
2018-06-23T07:16:42.004Z,96.91
2018-06-23T07:17:42.096Z,96.53
2018-06-23T07:18:42.069Z,96.23
2018-06-23T07:19:42.100Z,96.02
2018-06-23T07:20:42.067Z,95.77
2018-06-23T07:21:42.139Z,95.47
2018-06-23T07:22:42.080Z,95.20
2018-06-23T07:23:42.238Z,94.88
2018-06-23T07:24:42.135Z,94.61
2018-06-23T07:25:42.066Z,94.64
2018-06-23T07:26:42.075Z,94.91
2018-06-23T07:27:42.135Z,94.29
2018-06-23T07:28:42.203Z,93.45
2018-06-23T07:29:42.084Z,92.89
2018-06-23T07:30:42.080Z,92.03
2018-06-23T07:31:42.083Z,92.27
2018-06-23T07:32:42.076Z,92.46
2018-06-23T07:33:42.124Z,92.16
2018-06-23T07:34:42.147Z,92.24
2018-06-23T07:35:42.052Z,92.30
2018-06-23T07:36:42.128Z,92.11
2018-06-23T07:37:42.111Z,91.82
2018-06-23T07:38:42.049Z,91.65
2018-06-23T07:39:42.154Z,91.38
2018-06-23T07:40:42.152Z,91.11
2018-06-23T07:41:42.116Z,90.45
2018-06-23T07:42:42.046Z,90.55
2018-06-23T07:43:42.115Z,90.69
2018-06-23T07:44:42.149Z,90.39
2018-06-23T07:45:42.115Z,89.80
2018-06-23T07:46:42.198Z,89.67
2018-06-23T07:47:42.145Z,89.16
2018-06-23T07:48:42.196Z,89.00
2018-06-23T07:49:42.020Z,89.29
2018-06-23T07:50:42.149Z,89.54
2018-06-23T07:51:42.136Z,89.19
2018-06-23T07:52:42.158Z,88.97
2018-06-23T07:53:42.129Z,89.19
2018-06-23T07:54:42.123Z,89.19
2018-06-23T07:55:42.150Z,89.24
2018-06-23T07:56:42.065Z,89.32
2018-06-23T07:57:42.125Z,90.05
2018-06-23T07:58:42.058Z,89.75
2018-06-23T07:59:42.128Z,90.02
2018-06-23T08:00:42.063Z,89.80
2018-06-23T08:01:42.101Z,89.88
2018-06-23T08:02:42.152Z,89.94
2018-06-23T08:03:42.136Z,90.28
2018-06-23T08:04:42.068Z,90.61
2018-06-23T08:05:42.160Z,90.80
2018-06-23T08:06:42.181Z,90.93
2018-06-23T08:07:42.131Z,91.57
2018-06-23T08:08:42.169Z,91.79
2018-06-23T08:09:42.212Z,92.46
2018-06-23T08:10:42.175Z,92.84
2018-06-23T08:11:42.109Z,93.10
2018-06-23T08:12:42.057Z,93.43
2018-06-23T08:13:42.043Z,93.37
2018-06-23T08:14:42.070Z,93.43
2018-06-23T08:15:42.138Z,93.56
2018-06-23T08:16:42.070Z,93.37
2018-06-23T08:17:42.068Z,93.43
2018-06-23T08:18:42.144Z,93.70
2018-06-23T08:19:42.113Z,93.78
2018-06-23T08:20:42.139Z,93.99
2018-06-23T08:21:42.140Z,94.23
2018-06-23T08:22:42.078Z,94.48
2018-06-23T08:23:42.143Z,94.69
2018-06-23T08:24:42.142Z,95.10
2018-06-23T08:25:42.137Z,95.50
2018-06-23T08:26:42.182Z,96.07
2018-06-23T08:27:42.018Z,96.61
2018-06-23T08:28:42.100Z,97.04
2018-06-23T08:29:42.038Z,97.07
2018-06-23T08:30:42.144Z,97.15
2018-06-23T08:31:42.132Z,97.45
2018-06-23T08:32:42.134Z,97.47
2018-06-23T08:33:42.020Z,97.77
2018-06-23T08:34:42.273Z,97.50
2018-06-23T08:35:42.151Z,97.83
2018-06-23T08:36:42.183Z,97.72
2018-06-23T08:37:42.189Z,98.10
2018-06-23T08:38:42.060Z,98.55
2018-06-23T08:39:42.126Z,98.64
2018-06-23T08:40:42.049Z,98.83
2018-06-23T08:41:42.184Z,99.13
2018-06-23T08:42:42.064Z,99.23
2018-06-23T08:43:42.126Z,99.26
2018-06-23T08:44:42.059Z,99.13
2018-06-23T08:45:42.024Z,98.80
2018-06-23T08:46:42.149Z,98.66
2018-06-23T08:47:42.140Z,98.72
2018-06-23T08:48:42.146Z,98.72
2018-06-23T08:49:42.150Z,99.02
2018-06-23T08:50:42.215Z,99.40
2018-06-23T08:51:42.176Z,99.45
2018-06-23T08:52:42.113Z,99.34
2018-06-23T08:53:42.067Z,99.64
2018-06-23T08:54:42.182Z,99.70
2018-06-23T08:55:42.160Z,99.45
2018-06-23T08:56:42.140Z,99.53
2018-06-23T08:57:42.123Z,99.72
2018-06-23T08:58:42.149Z,99.89
2018-06-23T08:59:42.136Z,99.99
2018-06-23T09:00:42.144Z,99.99
2018-06-23T09:01:42.129Z,99.99
2018-06-23T09:02:42.226Z,99.99
2018-06-23T09:03:42.072Z,99.99
2018-06-23T09:04:42.077Z,99.99
2018-06-23T09:05:42.172Z,99.99
2018-06-23T09:06:42.204Z,99.99
2018-06-23T09:07:42.201Z,99.99
2018-06-23T09:08:42.192Z,99.99
2018-06-23T09:09:42.173Z,99.99
2018-06-23T09:10:42.148Z,99.99
2018-06-23T09:11:42.071Z,99.99
2018-06-23T09:12:42.203Z,99.99
2018-06-23T09:13:42.234Z,99.56
2018-06-23T09:14:42.176Z,99.32
2018-06-23T09:15:42.111Z,99.13
2018-06-23T09:16:42.123Z,99.02
2018-06-23T09:17:42.184Z,98.72
2018-06-23T09:18:42.178Z,98.53
2018-06-23T09:19:42.213Z,98.48
2018-06-23T09:20:42.072Z,97.61
2018-06-23T09:21:42.118Z,96.77
2018-06-23T09:22:42.117Z,95.88
2018-06-23T09:23:42.116Z,95.28
2018-06-23T09:24:42.110Z,94.04
2018-06-23T09:25:42.106Z,91.33
2018-06-23T09:26:42.057Z,90.80
2018-06-23T09:27:42.055Z,90.82
2018-06-23T09:28:42.008Z,90.47
2018-06-23T09:29:42.063Z,88.44
2018-06-23T09:30:42.072Z,89.22
2018-06-23T09:31:42.112Z,89.64
2018-06-23T09:32:42.058Z,90.09
2018-06-23T09:33:42.060Z,89.48
2018-06-23T09:34:42.127Z,89.45
2018-06-23T09:35:42.122Z,89.64
2018-06-23T09:36:42.213Z,89.99
2018-06-23T09:37:42.153Z,90.31
2018-06-23T09:38:42.190Z,88.84
2018-06-23T09:39:42.224Z,88.68
2018-06-23T09:40:42.128Z,89.22
2018-06-23T09:41:42.201Z,88.79
2018-06-23T09:42:42.135Z,88.15
2018-06-23T09:43:42.196Z,88.95
2018-06-23T09:44:42.135Z,89.56
2018-06-23T09:45:42.218Z,89.14
2018-06-23T09:46:42.175Z,88.23
2018-06-23T09:47:42.137Z,88.92
2018-06-23T09:48:42.231Z,88.25
2018-06-23T09:49:42.097Z,88.25
2018-06-23T09:50:42.102Z,87.74
2018-06-23T09:51:42.220Z,87.10
2018-06-23T09:52:42.160Z,86.28
2018-06-23T09:53:42.107Z,86.52
2018-06-23T09:54:42.166Z,86.09
2018-06-23T09:55:42.190Z,85.46
2018-06-23T09:56:42.145Z,84.76
2018-06-23T09:57:42.197Z,83.14
2018-06-23T09:58:42.140Z,84.09
2018-06-23T09:59:42.196Z,83.14
2018-06-23T10:00:42.191Z,83.83
2018-06-23T10:01:42.109Z,83.22
2018-06-23T10:02:42.112Z,81.48
2018-06-23T10:03:42.197Z,81.16
2018-06-23T10:04:42.159Z,80.60
2018-06-23T10:05:42.160Z,80.55
2018-06-23T10:06:42.143Z,79.07
2018-06-23T10:07:42.162Z,77.94
2018-06-23T10:08:42.183Z,78.78
2018-06-23T10:09:42.160Z,79.23
2018-06-23T10:10:42.202Z,78.54
2018-06-23T10:11:42.166Z,78.54
2018-06-23T10:12:42.206Z,79.63
2018-06-23T10:13:42.212Z,78.94
2018-06-23T10:14:42.120Z,79.13
2018-06-23T10:15:42.118Z,79.20
2018-06-23T10:16:42.120Z,78.44
2018-06-23T10:17:42.101Z,78.70
2018-06-23T10:18:42.158Z,78.78
2018-06-23T10:19:42.213Z,79.71
2018-06-23T10:20:42.210Z,80.39
2018-06-23T10:21:42.210Z,80.21
2018-06-23T10:22:42.151Z,80.92
2018-06-23T10:23:42.170Z,80.81
2018-06-23T10:24:42.157Z,80.39
2018-06-23T10:25:42.223Z,81.40
2018-06-23T10:26:42.201Z,81.98
2018-06-23T10:27:42.279Z,81.10
2018-06-23T10:28:42.219Z,81.82
2018-06-23T10:29:42.165Z,81.05
2018-06-23T10:30:42.268Z,80.31
2018-06-23T10:31:42.179Z,80.55
2018-06-23T10:32:42.229Z,81.32
2018-06-23T10:33:42.201Z,81.32
2018-06-23T10:34:42.309Z,79.20
2018-06-23T10:35:42.255Z,80.15
2018-06-23T10:36:42.189Z,79.83
2018-06-23T10:37:42.211Z,80.26
2018-06-23T10:38:42.228Z,80.52
2018-06-23T10:39:42.191Z,80.52
2018-06-23T10:40:42.263Z,79.57
2018-06-23T10:41:42.200Z,80.29
2018-06-23T10:42:42.211Z,78.86
2018-06-23T10:43:42.256Z,77.59
2018-06-23T10:44:42.197Z,77.17
2018-06-23T10:45:42.235Z,77.44
2018-06-23T10:46:42.172Z,77.15
2018-06-23T10:47:42.240Z,77.31
2018-06-23T10:48:42.173Z,76.67
2018-06-23T10:49:42.242Z,75.78
2018-06-23T10:50:42.238Z,75.55
2018-06-23T10:51:42.172Z,76.15
2018-06-23T10:52:42.240Z,76.02
2018-06-23T10:53:42.173Z,77.12
2018-06-23T10:54:42.171Z,77.78
2018-06-23T10:55:42.251Z,76.62
2018-06-23T10:56:42.245Z,77.12
2018-06-23T10:57:42.206Z,76.75
2018-06-23T10:58:42.247Z,77.31
2018-06-23T10:59:42.182Z,77.44
2018-06-23T11:00:42.245Z,76.78
2018-06-23T11:01:42.180Z,77.67
2018-06-23T11:02:42.176Z,78.12
2018-06-23T11:03:42.249Z,77.23
2018-06-23T11:04:42.312Z,77.49
2018-06-23T11:05:42.252Z,77.07
2018-06-23T11:06:42.208Z,77.67
2018-06-23T11:07:42.156Z,77.36
2018-06-23T11:08:42.275Z,77.17
2018-06-23T11:09:42.273Z,76.91
2018-06-23T11:10:42.291Z,76.23
2018-06-23T11:11:42.280Z,75.76
2018-06-23T11:12:42.310Z,76.62
2018-06-23T11:13:42.240Z,76.07
2018-06-23T11:14:42.289Z,74.52
2018-06-23T11:15:42.257Z,75.49
2018-06-23T11:16:42.194Z,73.89
2018-06-23T11:17:42.257Z,73.82
2018-06-23T11:18:42.194Z,73.97
2018-06-23T11:19:42.222Z,72.25
2018-06-23T11:20:42.196Z,71.44
2018-06-23T11:21:42.260Z,71.00
2018-06-23T11:22:42.198Z,70.71
2018-06-23T11:23:42.192Z,71.89
2018-06-23T11:24:42.296Z,71.34
2018-06-23T11:25:42.193Z,71.05
2018-06-23T11:26:42.264Z,69.93
2018-06-23T11:27:42.264Z,70.37
2018-06-23T11:28:42.228Z,70.95
2018-06-23T11:29:42.266Z,70.11
2018-06-23T11:30:42.204Z,69.23
2018-06-23T11:31:42.270Z,69.80
2018-06-23T11:32:42.200Z,69.98
2018-06-23T11:33:42.273Z,69.41
2018-06-23T11:34:42.269Z,69.15
2018-06-23T11:35:42.237Z,69.82
2018-06-23T11:36:42.172Z,69.98
2018-06-23T11:37:42.309Z,69.41
2018-06-23T11:38:42.177Z,69.44
2018-06-23T11:39:42.233Z,70.32
2018-06-23T11:40:42.177Z,70.53
2018-06-23T11:41:42.274Z,71.26
2018-06-23T11:42:42.273Z,71.26
2018-06-23T11:43:42.308Z,71.28
2018-06-23T11:44:42.229Z,71.36
2018-06-23T11:45:42.272Z,71.57
2018-06-23T11:46:42.207Z,71.78
2018-06-23T11:47:42.279Z,71.70
2018-06-23T11:48:42.215Z,71.96
2018-06-23T11:49:42.277Z,72.17
2018-06-23T11:50:42.277Z,71.86
2018-06-23T11:51:42.216Z,71.44
2018-06-23T11:52:42.215Z,71.26
2018-06-23T11:53:42.294Z,71.70
2018-06-23T11:54:42.215Z,72.04
2018-06-23T11:55:42.303Z,71.47
2018-06-23T11:56:42.326Z,71.18
2018-06-23T11:57:42.312Z,70.97
2018-06-23T11:58:42.218Z,71.39
2018-06-23T11:59:42.208Z,70.53
2018-06-23T12:00:42.248Z,69.67
2018-06-23T12:01:42.345Z,69.54
2018-06-23T12:02:42.266Z,69.93
2018-06-23T12:03:42.327Z,69.65
2018-06-23T12:04:42.210Z,68.99
2018-06-23T12:05:42.224Z,68.04
2018-06-23T12:06:42.197Z,68.71
2018-06-23T12:07:42.198Z,67.33
2018-06-23T12:08:42.200Z,67.23
2018-06-23T12:09:42.197Z,66.69
2018-06-23T12:10:42.288Z,66.06
2018-06-23T12:11:42.234Z,66.04
2018-06-23T12:12:42.291Z,65.45
2018-06-23T12:13:42.201Z,65.11
2018-06-23T12:14:42.215Z,65.18
2018-06-23T12:15:42.276Z,64.59
2018-06-23T12:16:42.244Z,64.52
2018-06-23T12:17:42.330Z,63.15
2018-06-23T12:18:42.252Z,62.87
2018-06-23T12:19:42.260Z,64.70
2018-06-23T12:20:42.319Z,63.51
2018-06-23T12:21:42.286Z,64.15
2018-06-23T12:22:42.257Z,64.18
2018-06-23T12:23:42.274Z,63.62
2018-06-23T12:24:42.321Z,64.36
2018-06-23T12:25:42.281Z,64.00
2018-06-23T12:26:42.212Z,63.98
2018-06-23T12:27:42.268Z,63.69
2018-06-23T12:28:42.281Z,64.13
2018-06-23T12:29:42.224Z,64.88
2018-06-23T12:30:42.279Z,64.34
2018-06-23T12:31:42.271Z,65.01
2018-06-23T12:32:42.268Z,65.18
2018-06-23T12:33:42.382Z,64.88
2018-06-23T12:34:42.246Z,65.01
2018-06-23T12:35:42.207Z,64.98
2018-06-23T12:36:42.276Z,64.90
2018-06-23T12:37:42.210Z,65.08
2018-06-23T12:38:42.264Z,65.53
2018-06-23T12:39:42.274Z,65.14
2018-06-23T12:40:42.281Z,64.88
2018-06-23T12:41:42.340Z,64.42
2018-06-23T12:42:42.332Z,64.44
2018-06-23T12:43:42.219Z,64.21
2018-06-23T12:44:42.328Z,64.26
2018-06-23T12:45:42.252Z,63.87
2018-06-23T12:46:42.313Z,63.62
2018-06-23T12:47:42.243Z,64.90
2018-06-23T12:48:42.319Z,64.72
2018-06-23T12:49:42.255Z,64.10
2018-06-23T12:50:42.249Z,63.59
2018-06-23T12:51:42.253Z,63.23
2018-06-23T12:52:42.357Z,62.82